Time;durP1;ratioP1;P1;durP2;ratioP2;P2;SDS_P1;SDS_P2;PMS_P1;PMS_P2;Temp;Humidity;BMP_temperature;BMP_pressure;BME280_temperature;BME280_humidity;BME280_pressure;Samples;Min_cycle;Max_cycle;Signal;HPM_P1;HPM_P2
2023/03/18 00:01:24;;;;;;;;;30.00;26.00;;;;;7.78;37.08;99018.78;6258817;27;96242;-61
2023/03/18 00:04:28;;;;;;;;;29.60;26.80;;;;;7.75;37.44;99009.28;6330619;27;96921;-60
2023/03/18 00:07:33;;;;;;;;;28.00;25.00;;;;;7.72;37.38;99004.31;6262873;27;99518;-60
2023/03/18 00:10:36;;;;;;;;;28.75;27.25;;;;;7.64;37.45;98998.28;6282662;27;96862;-60
2023/03/18 00:13:41;;;;;;;;;27.00;25.00;;;;;7.57;38.01;99000.97;6249735;27;96538;-60
2023/03/18 00:16:44;;;;;;;;;30.00;27.00;;;;;7.52;37.78;98997.22;6275483;27;96391;-60
2023/03/18 00:19:49;;;;;;;;;32.00;30.00;;;;;7.51;37.49;99001.75;6242034;27;96754;-60
2023/03/18 00:22:54;;;;;;;;;29.75;27.00;;;;;7.48;37.86;98990.59;6293326;27;96238;-60
2023/03/18 00:25:59;;;;;;;;;27.40;25.40;;;;;7.32;37.99;98987.22;6283305;27;96565;-60
2023/03/18 00:29:03;;;;;;;;;29.00;27.60;;;;;7.33;38.38;98985.38;6248252;27;96245;-60
2023/03/18 00:32:07;;;;;;;;;31.75;30.00;;;;;7.35;37.95;98996.72;6319325;27;96659;-60
2023/03/18 00:35:11;;;;;;;;;26.80;24.20;;;;;7.38;38.03;99001.66;6232333;27;97106;-60
2023/03/18 00:38:19;;;;;;;;;31.00;29.60;;;;;7.39;37.78;98992.59;6264958;27;96464;-61
2023/03/18 00:41:24;;;;;;;;;28.60;26.60;;;;;7.39;38.05;98995.28;6262058;27;96455;-60
2023/03/18 00:44:27;;;;;;;;;27.00;26.00;;;;;7.36;37.88;98988.47;6256604;27;97128;-60
2023/03/18 00:47:31;;;;;;;;;25.60;24.20;;;;;7.32;38.03;98981.03;6258586;27;96651;-60
2023/03/18 00:50:36;;;;;;;;;25.50;22.00;;;;;7.28;38.21;98980.56;6276599;27;96408;-60
2023/03/18 00:53:41;;;;;;;;;25.75;25.00;;;;;7.23;38.30;98980.34;6262519;27;96939;-60
2023/03/18 00:56:45;;;;;;;;;30.40;27.80;;;;;7.18;38.24;98966.72;6276024;27;96198;-60
2023/03/18 00:59:48;;;;;;;;;30.60;28.60;;;;;7.09;38.99;98969.72;6270502;27;96728;-60
2023/03/18 01:02:52;;;;;;;;;30.40;27.60;;;;;7.11;38.79;98973.88;6262157;27;96624;-60
2023/03/18 01:05:56;;;;;;;;;27.00;25.75;;;;;7.03;39.09;98968.69;6221867;27;96105;-61
2023/03/18 01:09:01;;;;;;;;;30.00;26.25;;;;;7.08;38.70;98970.78;6240542;27;96794;-60
2023/03/18 01:12:06;;;;;;;;;27.60;26.00;;;;;7.02;38.68;98976.94;6207045;28;96501;-60
2023/03/18 01:15:12;;;;;;;;;26.00;23.00;;;;;6.93;38.77;98952.13;6219084;27;96196;-60
2023/03/18 01:18:15;;;;;;;;;29.00;28.00;;;;;7.07;38.71;98972.63;6238546;27;97105;-61
2023/03/18 01:21:18;;;;;;;;;25.00;22.50;;;;;7.12;38.42;98948.75;6266469;27;96221;-60
2023/03/18 01:24:30;;;;;;;;;28.40;24.80;;;;;7.14;38.36;98959.25;6256477;27;96374;-60
2023/03/18 01:27:34;;;;;;;;;26.50;26.00;;;;;7.10;38.71;98960.66;6277550;27;96780;-60
2023/03/18 01:30:39;;;;;;;;;27.00;26.00;;;;;7.13;38.29;98954.94;6245494;27;96634;-60
2023/03/18 01:33:44;;;;;;;;;28.40;26.40;;;;;7.03;39.05;98954.47;6239282;27;96833;-61
2023/03/18 01:36:47;;;;;;;;;28.50;26.50;;;;;7.02;38.77;98952.81;6261632;27;97682;-60
2023/03/18 01:39:52;;;;;;;;;27.00;24.80;;;;;7.00;38.89;98947.63;6270535;27;96494;-60
2023/03/18 01:43:00;;;;;;;;;30.00;27.00;;;;;6.93;39.07;98952.13;6314959;27;97293;-60
2023/03/18 01:46:32;;;;;;;;;28.40;26.40;;;;;6.86;39.13;98945.91;6226537;27;97089;-60
2023/03/18 01:49:39;;;;;;;;;27.80;24.80;;;;;6.83;39.21;98944.44;6284375;27;100202;-60
2023/03/18 01:52:45;;;;;;;;;28.20;25.20;;;;;6.82;39.20;98945.47;6256618;27;96360;-60
2023/03/18 01:55:51;;;;;;;;;26.20;23.60;;;;;6.80;39.20;98938.63;6267317;27;96445;-60
2023/03/18 01:58:59;;;;;;;;;28.00;27.00;;;;;6.78;39.11;98940.69;6262889;27;97211;-60
2023/03/18 02:02:07;;;;;;;;;30.40;26.40;;;;;6.70;39.41;98938.16;6243485;27;96445;-60
2023/03/18 02:05:14;;;;;;;;;27.00;26.00;;;;;6.75;39.13;98941.91;6198818;27;98313;-60
2023/03/18 02:08:18;;;;;;;;;25.00;24.20;;;;;6.68;39.18;98937.53;6205554;27;97273;-60
2023/03/18 02:11:23;;;;;;;;;31.00;26.50;;;;;6.71;39.12;98946.00;6270247;27;96841;-61
2023/03/18 02:14:29;;;;;;;;;27.00;26.00;;;;;6.62;39.05;98927.59;6238574;27;96674;-60
2023/03/18 02:17:36;;;;;;;;;28.40;26.40;;;;;6.71;39.18;98937.97;6273970;27;96337;-60
2023/03/18 02:21:02;;;;;;;;;30.50;25.75;;;;;6.66;39.11;98934.22;6216641;27;96767;-60
2023/03/18 02:24:16;;;;;;;;;30.00;28.00;;;;;6.65;39.33;98936.06;6251976;27;97142;-60
2023/03/18 02:27:22;;;;;;;;;27.00;26.00;;;;;6.63;39.19;98931.94;6232634;27;96676;-60
2023/03/18 02:30:31;;;;;;;;;25.00;24.00;;;;;6.64;39.41;98931.75;6239904;27;96942;-60
2023/03/18 02:33:38;;;;;;;;;30.00;27.40;;;;;6.65;39.29;98930.69;6243450;27;99232;-61
2023/03/18 02:36:42;;;;;;;;;30.40;26.40;;;;;6.65;39.17;98930.69;6252356;27;96477;-61
2023/03/18 02:39:46;;;;;;;;;26.40;24.00;;;;;6.52;39.52;98930.63;6258983;27;96457;-60
2023/03/18 02:42:52;;;;;;;;;23.20;21.00;;;;;6.33;39.94;98928.63;6293140;27;96628;-60
2023/03/18 02:46:12;;;;;;;;;26.20;24.80;;;;;6.36;39.62;98931.72;6252927;27;97439;-60
2023/03/18 02:49:18;;;;;;;;;28.00;26.60;;;;;6.35;39.87;98935.41;6252997;27;96642;-60
2023/03/18 02:52:22;;;;;;;;;25.20;25.00;;;;;6.37;39.72;98929.88;6278502;27;97390;-61
2023/03/18 02:55:26;;;;;;;;;29.00;26.60;;;;;6.40;39.71;98930.31;6268634;27;96933;-60
2023/03/18 02:58:31;;;;;;;;;26.00;24.60;;;;;6.38;39.82;98927.00;6256524;27;98629;-60
2023/03/18 03:01:37;;;;;;;;;26.00;24.80;;;;;6.38;39.60;98927.00;6321470;27;96353;-60
2023/03/18 03:04:42;;;;;;;;;27.00;24.40;;;;;6.37;39.66;98921.84;6281238;27;96949;-61
2023/03/18 03:07:45;;;;;;;;;31.00;26.40;;;;;6.30;39.63;98919.13;6304667;27;96510;-60
2023/03/18 03:10:49;;;;;;;;;27.00;26.00;;;;;6.41;39.95;98929.28;6227144;27;98341;-61
2023/03/18 03:13:56;;;;;;;;;28.00;26.00;;;;;6.43;39.49;98927.25;6247155;27;98363;-60
2023/03/18 03:16:59;;;;;;;;;28.20;26.60;;;;;6.41;39.67;98931.13;6219009;27;98891;-60
2023/03/18 03:20:06;;;;;;;;;26.00;25.00;;;;;6.30;39.48;98919.13;6287142;27;96255;-60
2023/03/18 03:23:15;;;;;;;;;30.40;29.00;;;;;6.32;39.74;98924.28;6232740;27;100188;-60
2023/03/18 03:26:19;;;;;;;;;26.60;26.00;;;;;6.35;39.75;98930.06;6241891;27;98262;-60
2023/03/18 03:29:25;;;;;;;;;26.40;25.60;;;;;6.40;39.52;98924.16;6254775;27;96619;-61
2023/03/18 03:32:28;;;;;;;;;28.00;24.75;;;;;6.44;39.63;98923.56;6259463;27;96622;-60
2023/03/18 03:35:32;;;;;;;;;26.00;24.00;;;;;6.48;39.69;98930.19;6259268;27;96943;-61
2023/03/18 03:38:35;;;;;;;;;28.00;27.00;;;;;6.49;39.69;98921.13;6193639;27;96273;-60
2023/03/18 03:41:39;;;;;;;;;28.60;26.20;;;;;6.49;40.13;98912.28;6265850;27;96821;-60
2023/03/18 03:44:44;;;;;;;;;26.80;25.00;;;;;6.53;39.92;98922.41;6258028;27;98373;-60
2023/03/18 03:47:48;;;;;;;;;26.80;25.80;;;;;6.46;39.65;98909.97;6275651;27;96255;-60
2023/03/18 03:50:51;;;;;;;;;25.00;23.00;;;;;6.49;40.01;98922.97;6246576;27;96933;-60
2023/03/18 03:53:55;;;;;;;;;28.20;26.40;;;;;6.41;40.09;98923.09;6228352;27;98387;-60
2023/03/18 03:56:58;;;;;;;;;28.00;25.60;;;;;6.42;40.02;98922.09;6224243;27;97329;-60
2023/03/18 04:00:06;;;;;;;;;28.20;26.60;;;;;6.44;40.22;98920.88;6258328;27;97045;-60
2023/03/18 04:03:16;;;;;;;;;28.00;25.00;;;;;6.48;39.83;98919.47;6262427;27;98459;-60
2023/03/18 04:06:19;;;;;;;;;28.00;26.00;;;;;6.50;39.87;98927.28;6255342;27;96215;-60
2023/03/18 04:09:33;;;;;;;;;26.40;24.40;;;;;6.49;40.12;98929.16;6264169;27;97209;-60
2023/03/18 04:12:39;;;;;;;;;25.40;24.40;;;;;6.50;39.74;98927.28;6254865;27;98383;-60
2023/03/18 04:15:46;;;;;;;;;30.00;27.60;;;;;6.53;39.65;98926.91;6235259;27;99078;-61
2023/03/18 04:18:53;;;;;;;;;24.40;22.40;;;;;6.52;40.01;98920.72;6269068;27;96709;-61
2023/03/18 04:21:58;;;;;;;;;27.40;23.20;;;;;6.32;40.27;98910.88;6262801;27;96589;-60
2023/03/18 04:25:02;;;;;;;;;28.00;26.00;;;;;6.32;40.39;98927.78;6268049;27;96265;-60
2023/03/18 04:28:06;;;;;;;;;29.50;27.00;;;;;6.30;40.90;98935.19;6273342;27;96367;-60
2023/03/18 04:31:13;;;;;;;;;30.20;26.80;;;;;6.20;40.50;98923.97;6248478;27;96965;-60
2023/03/18 04:34:17;;;;;;;;;24.75;22.50;;;;;6.32;40.88;98940.34;6240211;27;96559;-60
2023/03/18 04:37:21;;;;;;;;;26.00;25.00;;;;;6.33;40.43;98944.69;6269301;27;97683;-60
2023/03/18 04:40:29;;;;;;;;;31.00;27.00;;;;;6.33;40.63;98948.19;6267294;27;96608;-60
2023/03/18 04:43:34;;;;;;;;;27.00;25.50;;;;;6.34;40.73;98944.50;6187541;28;98374;-61
2023/03/18 04:46:41;;;;;;;;;29.00;26.00;;;;;6.35;40.65;98951.47;6237794;27;96893;-60
2023/03/18 04:49:44;;;;;;;;;30.00;26.00;;;;;6.35;40.69;98950.69;6255769;27;96867;-60
2023/03/18 04:52:50;;;;;;;;;29.00;27.00;;;;;6.30;40.75;98956.63;6300440;27;97678;-60
2023/03/18 04:55:59;;;;;;;;;26.00;23.00;;;;;6.31;40.77;98952.88;6260265;27;96438;-60
2023/03/18 04:59:10;;;;;;;;;27.00;26.00;;;;;6.35;41.14;98956.84;6304068;27;96619;-60
2023/03/18 05:02:15;;;;;;;;;24.00;23.00;;;;;6.38;41.10;98953.78;6300927;27;96740;-60
2023/03/18 05:05:20;;;;;;;;;25.80;23.80;;;;;6.43;41.03;98953.22;6247181;27;96691;-60
2023/03/18 05:08:26;;;;;;;;;26.25;25.00;;;;;6.46;41.18;98950.97;6275860;27;96426;-60
2023/03/18 05:11:30;;;;;;;;;25.40;22.20;;;;;6.51;41.22;98945.84;6240298;27;96496;-60
2023/03/18 05:14:37;;;;;;;;;26.00;25.40;;;;;6.59;41.18;98944.91;6302195;27;97275;-60
2023/03/18 05:17:42;;;;;;;;;24.40;23.20;;;;;6.59;41.12;98946.75;6284793;27;98981;-60
2023/03/18 05:20:47;;;;;;;;;26.00;22.80;;;;;6.70;41.08;98947.00;6270577;27;96182;-61
2023/03/18 05:23:52;;;;;;;;;29.75;25.75;;;;;6.83;40.87;98960.53;6252226;27;97065;-60
2023/03/18 05:26:56;;;;;;;;;27.00;26.00;;;;;6.94;41.04;98957.28;6266241;27;96823;-60
2023/03/18 05:30:08;;;;;;;;;22.80;21.80;;;;;7.10;40.69;98960.66;6244553;27;96595;-60
2023/03/18 05:33:20;;;;;;;;;26.20;24.00;;;;;7.19;40.34;98970.22;6265164;27;96459;-61
2023/03/18 05:36:31;;;;;;;;;28.60;25.60;;;;;7.33;40.04;98963.91;6259680;27;97022;-60
2023/03/18 05:39:39;;;;;;;;;31.00;28.40;;;;;7.43;40.12;98967.03;6257427;27;96029;-60
2023/03/18 05:42:46;;;;;;;;;30.00;28.00;;;;;7.62;39.73;98968.16;6250521;27;96968;-60
2023/03/18 05:46:07;;;;;;;;;29.60;27.60;;;;;7.77;39.55;98966.94;6260292;27;97575;-61
2023/03/18 05:49:35;;;;;;;;;28.67;26.67;;;;;7.97;39.21;98961.63;6194275;27;96763;-60
2023/03/18 05:52:54;;;;;;;;;32.25;28.50;;;;;8.11;39.08;98959.84;6271631;27;96262;-60
2023/03/18 05:55:59;;;;;;;;;30.80;28.00;;;;;8.21;38.74;98953.00;6259858;27;96825;-60
2023/03/18 05:59:05;;;;;;;;;33.80;30.40;;;;;8.31;38.44;98959.91;6256867;27;97976;-60
2023/03/18 06:02:19;;;;;;;;;30.00;29.00;;;;;8.42;38.16;98956.56;6271071;27;97075;-61
2023/03/18 06:05:25;;;;;;;;;29.50;28.00;;;;;8.50;38.04;98954.50;6259780;27;96639;-61
2023/03/18 06:08:29;;;;;;;;;30.00;27.00;;;;;8.56;37.78;98956.38;6261466;27;96628;-60
2023/03/18 06:11:33;;;;;;;;;28.75;27.75;;;;;8.52;37.52;98957.00;6236109;27;96923;-60
2023/03/18 06:14:36;;;;;;;;;27.00;25.60;;;;;8.65;37.33;98955.13;6201589;27;96331;-60
2023/03/18 06:17:41;;;;;;;;;26.80;25.80;;;;;8.67;37.13;98960.28;6270406;27;96979;-60
2023/03/18 06:20:46;;;;;;;;;28.60;25.00;;;;;8.92;36.69;98965.84;6269774;27;97130;-59
2023/03/18 06:23:51;;;;;;;;;27.00;25.50;;;;;9.10;37.09;98966.84;6260677;27;96473;-60
2023/03/18 06:26:54;;;;;;;;;25.40;24.40;;;;;9.39;36.52;98970.91;6249953;27;96602;-60
2023/03/18 06:30:01;;;;;;;;;24.25;23.00;;;;;9.69;36.14;98965.81;6261093;27;96308;-60
2023/03/18 06:33:05;;;;;;;;;26.00;25.00;;;;;9.99;35.43;98961.53;6263057;27;96534;-60
2023/03/18 06:36:10;;;;;;;;;27.00;24.75;;;;;10.36;35.13;98964.44;6248236;27;97113;-60
2023/03/18 06:39:20;;;;;;;;;34.00;29.00;;;;;10.71;34.82;98980.94;6251864;27;96801;-60
2023/03/18 06:42:24;;;;;;;;;27.00;26.50;;;;;11.08;34.25;98982.72;6267761;27;96757;-60
2023/03/18 06:45:40;;;;;;;;;26.80;23.80;;;;;11.56;33.69;98984.69;6268220;27;96349;-61
2023/03/18 06:48:45;;;;;;;;;27.40;26.20;;;;;12.08;32.88;98980.50;6296424;27;96456;-60
2023/03/18 06:51:55;;;;;;;;;27.00;26.00;;;;;12.42;31.71;98982.50;6240169;27;96746;-60
2023/03/18 06:54:59;;;;;;;;;27.00;25.00;;;;;12.87;31.26;98980.13;6230329;27;96784;-60
2023/03/18 06:58:02;;;;;;;;;25.00;24.00;;;;;13.32;30.78;98980.38;6267869;27;97001;-60
2023/03/18 07:01:16;;;;;;;;;27.50;25.00;;;;;13.72;30.39;98980.44;6271598;27;96593;-60
2023/03/18 07:04:22;;;;;;;;;25.60;23.00;;;;;14.02;29.44;98976.69;6245300;27;99363;-59
2023/03/18 07:07:28;;;;;;;;;27.75;24.75;;;;;14.36;29.18;98974.88;6274104;27;96436;-60
2023/03/18 07:10:32;;;;;;;;;29.00;24.60;;;;;14.83;28.58;98980.88;6290485;27;96551;-60
2023/03/18 07:13:44;;;;;;;;;24.25;22.25;;;;;15.32;28.11;98963.69;6247131;27;96686;-60
2023/03/18 07:16:54;;;;;;;;;25.00;24.00;;;;;15.97;27.15;98993.66;6269288;27;96573;-60
2023/03/18 07:19:58;;;;;;;;;25.00;24.00;;;;;16.52;26.71;98995.31;6246655;27;98878;-59
2023/03/18 07:23:04;;;;;;;;;29.40;27.00;;;;;16.89;25.84;98993.53;6284213;27;96644;-59
2023/03/18 07:26:07;;;;;;;;;25.20;23.60;;;;;17.29;25.81;98976.66;6266520;27;96512;-60
2023/03/18 07:29:11;;;;;;;;;26.00;24.40;;;;;17.73;24.92;98990.03;6222533;27;96868;-59
2023/03/18 07:32:14;;;;;;;;;26.00;22.00;;;;;18.12;24.67;98993.19;6263645;27;97735;-59
2023/03/18 07:35:18;;;;;;;;;28.00;24.20;;;;;18.42;23.62;98992.44;6269228;27;96406;-59
2023/03/18 07:38:23;;;;;;;;;24.80;23.00;;;;;18.71;23.57;98996.34;6192843;27;97205;-59
2023/03/18 07:41:26;;;;;;;;;25.20;25.00;;;;;19.06;23.07;98989.25;6210927;27;96867;-61
2023/03/18 07:44:30;;;;;;;;;28.80;24.60;;;;;19.33;22.78;99000.69;6206119;27;96534;-60
2023/03/18 07:47:33;;;;;;;;;23.00;22.00;;;;;19.63;22.17;98999.84;6195249;27;96375;-59
2023/03/18 07:50:37;;;;;;;;;24.50;22.50;;;;;19.95;21.82;99004.91;6195362;27;96564;-60
2023/03/18 07:53:42;;;;;;;;;24.80;24.00;;;;;20.39;21.66;99011.31;6194162;27;96467;-59
2023/03/18 07:56:45;;;;;;;;;26.00;24.00;;;;;20.60;21.36;99012.81;6254460;27;96816;-60
2023/03/18 07:59:49;;;;;;;;;24.60;23.60;;;;;20.75;21.17;98998.22;6195439;27;96944;-59
2023/03/18 08:02:52;;;;;;;;;25.00;23.40;;;;;20.95;20.71;98997.22;6272050;27;96837;-59
2023/03/18 08:05:56;;;;;;;;;23.80;21.20;;;;;21.32;20.81;99002.13;6203158;27;97185;-60
2023/03/18 08:09:02;;;;;;;;;22.60;21.60;;;;;21.62;20.43;99007.31;6194467;27;96337;-60
2023/03/18 08:12:06;;;;;;;;;25.00;24.00;;;;;21.87;20.02;99012.53;6254605;27;98397;-60
2023/03/18 08:15:10;;;;;;;;;23.00;21.00;;;;;22.05;19.95;99010.97;6262047;27;97100;-59
2023/03/18 08:18:14;;;;;;;;;25.40;24.60;;;;;22.32;19.69;99008.41;6251539;27;96245;-60
2023/03/18 08:21:17;;;;;;;;;25.00;25.00;;;;;22.61;19.15;99005.53;6254214;27;98629;-59
2023/03/18 08:24:23;;;;;;;;;23.40;22.40;;;;;22.97;19.15;99008.56;6208468;27;97297;-59
2023/03/18 08:27:26;;;;;;;;;24.00;22.00;;;;;23.07;19.20;99016.66;6240111;27;96467;-60
2023/03/18 08:30:30;;;;;;;;;23.40;22.00;;;;;23.13;18.59;99014.63;6203962;27;96617;-64
2023/03/18 08:33:33;;;;;;;;;23.40;21.80;;;;;23.19;18.75;99019.75;6205984;27;97079;-62
2023/03/18 08:36:36;;;;;;;;;22.60;20.00;;;;;23.23;18.06;99003.47;6274585;27;98390;-63
2023/03/18 08:39:43;;;;;;;;;25.60;22.60;;;;;23.44;18.78;99021.25;6284463;27;96813;-61
2023/03/18 08:42:47;;;;;;;;;25.20;24.20;;;;;23.70;18.39;99010.63;6280946;27;96628;-63
2023/03/18 08:45:52;;;;;;;;;26.20;25.00;;;;;24.01;17.91;99013.59;6253762;27;98460;-63
2023/03/18 08:48:56;;;;;;;;;25.80;23.00;;;;;24.38;17.74;99018.09;6212961;27;97167;-64
2023/03/18 08:51:59;;;;;;;;;23.33;21.00;;;;;24.82;17.38;99020.94;6205703;27;97103;-64
2023/03/18 08:55:04;;;;;;;;;21.60;21.40;;;;;25.22;16.94;99016.38;6215914;27;96400;-62
2023/03/18 08:58:11;;;;;;;;;22.60;21.00;;;;;25.42;16.75;99015.84;6256364;27;96211;-63
2023/03/18 09:01:16;;;;;;;;;32.00;30.00;;;;;25.76;16.52;99009.72;6220011;28;96401;-64
2023/03/18 09:04:25;;;;;;;;;26.00;23.33;;;;;26.04;15.97;99010.34;6217899;27;96480;-63
2023/03/18 09:07:29;;;;;;;;;22.20;20.80;;;;;26.25;16.11;99005.84;6274524;27;96763;-63
2023/03/18 09:10:34;;;;;;;;;21.00;20.00;;;;;26.61;15.76;99013.06;6265216;27;96651;-63
2023/03/18 09:13:38;;;;;;;;;20.33;20.00;;;;;26.81;15.50;98998.59;6272781;27;96674;-63
2023/03/18 09:16:41;;;;;;;;;19.00;19.00;;;;;26.96;15.75;99008.41;6287547;27;96857;-64
2023/03/18 09:19:44;;;;;;;;;20.75;19.00;;;;;27.29;15.28;99001.19;6209494;27;96258;-64
2023/03/18 09:22:49;;;;;;;;;21.50;19.25;;;;;26.92;14.98;98997.19;6240041;27;96252;-65
2023/03/18 09:25:56;;;;;;;;;20.60;19.00;;;;;26.72;15.20;99001.38;6270159;27;96484;-63
2023/03/18 09:28:59;;;;;;;;;22.00;19.00;;;;;26.89;15.15;99002.53;6273569;27;96955;-65
2023/03/18 09:32:02;;;;;;;;;20.00;19.00;;;;;27.03;15.16;99001.22;6262005;27;97399;-64
2023/03/18 09:35:09;;;;;;;;;22.00;21.00;;;;;27.01;15.21;98991.63;6212484;27;96486;-64
2023/03/18 09:38:17;;;;;;;;;22.00;18.40;;;;;26.91;15.15;98997.50;6268115;27;98404;-63
2023/03/18 09:41:35;;;;;;;;;23.20;19.20;;;;;27.10;14.81;98992.44;6284589;27;98946;-62
2023/03/18 09:44:39;;;;;;;;;22.50;19.50;;;;;27.53;15.31;98978.50;6284283;27;96337;-64
2023/03/18 09:48:05;;;;;;;;;23.40;20.00;;;;;28.01;14.64;98990.03;6215848;27;96411;-64
2023/03/18 09:51:24;;;;;;;;;20.00;19.00;;;;;28.44;13.93;98995.34;6275847;27;96767;-65
2023/03/18 09:54:35;;;;;;;;;19.00;17.00;;;;;28.54;13.12;98985.03;6225802;27;96916;-63
2023/03/18 09:57:44;;;;;;;;;18.40;16.00;;;;;28.26;13.55;98985.53;6256944;27;96726;-64
2023/03/18 10:00:50;;;;;;;;;16.00;15.00;;;;;27.89;12.82;98978.88;6262676;27;96458;-64
2023/03/18 10:04:00;;;;;;;;;18.00;15.25;;;;;27.69;13.32;98987.09;6275989;27;96337;-64
2023/03/18 10:07:18;;;;;;;;;18.00;16.00;;;;;27.91;13.68;98978.50;6316084;27;96332;-65
2023/03/18 10:10:28;;;;;;;;;17.60;16.60;;;;;28.12;13.52;98973.88;6314323;27;96355;-63
2023/03/18 10:13:38;;;;;;;;;17.00;14.40;;;;;28.25;13.36;98975.56;6208055;27;96472;-66
2023/03/18 10:16:54;;;;;;;;;17.00;15.00;;;;;28.79;13.56;98975.69;6269552;27;96286;-67
2023/03/18 10:20:03;;;;;;;;;17.20;16.00;;;;;28.85;12.66;98975.16;6241839;27;98421;-66
2023/03/18 10:23:19;;;;;;;;;20.00;18.00;;;;;29.14;12.97;98967.84;6198010;27;96456;-65
2023/03/18 10:26:31;;;;;;;;;16.50;15.00;;;;;29.64;12.77;98954.59;6264838;27;97240;-64
2023/03/18 10:29:42;;;;;;;;;15.00;14.50;;;;;29.78;12.38;98954.25;6196839;27;96505;-66
2023/03/18 10:32:56;;;;;;;;;15.60;15.60;;;;;29.82;12.12;98946.81;6269819;27;99665;-66
2023/03/18 10:36:05;;;;;;;;;17.00;15.50;;;;;29.81;12.12;98952.75;6271903;27;97429;-66
2023/03/18 10:39:15;;;;;;;;;17.60;16.60;;;;;29.32;12.28;98949.09;6254926;27;96994;-67
2023/03/18 10:42:21;;;;;;;;;14.60;14.00;;;;;29.42;12.88;98943.09;6255619;27;98450;-66
2023/03/18 10:45:28;;;;;;;;;17.00;15.60;;;;;29.57;12.33;98957.13;6251168;27;98618;-66
2023/03/18 10:48:35;;;;;;;;;16.80;16.00;;;;;29.23;12.42;98946.38;6211737;27;96682;-66
2023/03/18 10:51:46;;;;;;;;;18.40;16.00;;;;;29.09;12.83;98943.09;6236012;27;96925;-67
2023/03/18 10:54:51;;;;;;;;;16.80;16.00;;;;;29.00;12.08;98940.41;6247207;27;96556;-67
2023/03/18 10:57:55;;;;;;;;;16.00;15.00;;;;;29.04;12.64;98935.78;6276787;27;97537;-67
2023/03/18 11:01:00;;;;;;;;;15.00;14.00;;;;;29.25;12.44;98941.28;6250857;27;96541;-65
2023/03/18 11:04:06;;;;;;;;;12.00;12.00;;;;;29.41;12.16;98939.50;6280328;27;97335;-67
2023/03/18 11:07:17;;;;;;;;;14.40;13.00;;;;;29.33;11.42;98936.81;6213420;27;97309;-66
2023/03/18 11:10:26;;;;;;;;;17.40;15.40;;;;;29.29;12.35;98931.13;6312292;27;96546;-67
2023/03/18 11:13:29;;;;;;;;;14.00;12.80;;;;;29.66;11.72;98923.69;6295742;27;98684;-66
2023/03/18 11:16:41;;;;;;;;;13.00;12.00;;;;;30.08;11.41;98919.53;6236473;27;96319;-67
2023/03/18 11:19:48;;;;;;;;;13.00;13.00;;;;;29.90;11.53;98917.34;6223324;27;97036;-67
2023/03/18 11:22:54;;;;;;;;;18.60;17.60;;;;;29.70;11.63;98919.88;6247574;27;96807;-67
2023/03/18 11:26:03;;;;;;;;;15.60;14.60;;;;;29.77;12.28;98919.28;6256543;27;98888;-67
2023/03/18 11:29:13;;;;;;;;;16.60;14.60;;;;;29.52;11.36;98915.66;6276296;27;96862;-66
2023/03/18 11:32:26;;;;;;;;;17.00;15.00;;;;;29.40;12.19;98915.66;6288866;27;97048;-66
2023/03/18 11:35:36;;;;;;;;;15.00;13.00;;;;;29.37;12.13;98908.00;6245319;27;96699;-67
2023/03/18 11:38:41;;;;;;;;;14.20;13.00;;;;;29.50;11.64;98895.78;6248132;27;96667;-66
2023/03/18 11:41:44;;;;;;;;;15.00;14.40;;;;;29.49;11.83;98893.34;6262526;27;96606;-65
2023/03/18 11:44:48;;;;;;;;;16.00;13.60;;;;;29.65;11.83;98897.88;6238740;27;1677045;-66
2023/03/18 11:47:53;;;;;;;;;16.00;16.00;;;;;29.92;11.79;98890.00;6204302;27;96297;-65
2023/03/18 11:51:21;;;;;;;;;15.25;14.50;;;;;29.94;11.15;98884.91;6253786;27;98567;-67
2023/03/18 11:55:04;;;;;;;;;18.00;16.40;;;;;30.16;11.67;98881.59;6249313;27;97253;-66
2023/03/18 11:58:41;;;;;;;;;17.00;15.00;;;;;30.31;11.70;98880.06;6232130;27;96801;-66
2023/03/18 12:01:56;;;;;;;;;18.00;15.00;;;;;30.59;12.13;98877.34;6278772;27;96629;-66
2023/03/18 12:05:24;;;;;;;;;13.00;12.00;;;;;30.87;11.66;98881.75;6256703;27;96342;-66
2023/03/18 12:08:40;;;;;;;;;15.20;14.80;;;;;31.14;11.24;98868.13;6246430;27;96237;-67
2023/03/18 12:11:59;;;;;;;;;15.60;14.00;;;;;30.94;11.04;98856.03;6262768;27;96375;-65
2023/03/18 12:15:18;;;;;;;;;13.00;13.00;;;;;30.89;11.30;98873.00;6247547;27;96892;-66
2023/03/18 12:18:37;;;;;;;;;14.00;12.50;;;;;31.03;11.45;98859.53;6256310;27;96865;-66
2023/03/18 12:22:08;;;;;;;;;18.20;17.20;;;;;30.89;11.37;98851.56;6280854;27;96331;-66
2023/03/18 12:25:39;;;;;;;;;15.60;14.60;;;;;30.54;11.63;98851.38;6268934;27;97204;-65
2023/03/18 12:28:56;;;;;;;;;15.00;14.00;;;;;30.30;11.75;98848.66;6247834;27;96305;-64
2023/03/18 12:32:10;;;;;;;;;16.00;15.40;;;;;29.71;11.68;98848.44;6279938;27;96356;-62
2023/03/18 12:35:29;;;;;;;;;14.40;14.40;;;;;29.50;12.28;98848.56;6297929;27;96306;-62
2023/03/18 12:39:05;;;;;;;;;17.00;16.00;;;;;29.62;12.88;98850.50;6273082;27;96345;-63
2023/03/18 12:42:12;;;;;;;;;15.40;14.00;;;;;29.29;11.81;98840.28;6266238;27;99048;-62
2023/03/18 12:45:19;;;;;;;;;13.80;13.00;;;;;28.76;12.27;98845.97;6304002;27;99036;-62
2023/03/18 12:48:31;;;;;;;;;16.00;15.00;;;;;28.35;13.04;98842.09;6288238;27;96338;-63
2023/03/18 12:51:51;;;;;;;;;17.50;16.50;;;;;28.12;13.28;98838.06;6267723;27;96710;-64
2023/03/18 12:55:02;;;;;;;;;15.00;13.80;;;;;28.18;13.87;98845.03;6219333;27;96528;-64
2023/03/18 12:58:11;;;;;;;;;15.60;15.00;;;;;28.25;13.48;98825.88;6288803;27;96580;-63
2023/03/18 13:01:19;;;;;;;;;15.00;14.00;;;;;28.34;13.30;98812.75;6251997;27;97016;-64
2023/03/18 13:04:29;;;;;;;;;15.60;15.60;;;;;28.42;13.22;98827.69;6252088;27;96298;-64
2023/03/18 13:07:43;;;;;;;;;18.60;16.00;;;;;28.40;13.34;98821.66;6305223;27;96431;-64
2023/03/18 13:10:58;;;;;;;;;16.00;14.00;;;;;28.24;13.57;98817.91;6275180;27;96782;-64
2023/03/18 13:14:07;;;;;;;;;16.00;14.25;;;;;27.75;13.62;98819.56;6257571;27;96323;-64
2023/03/18 13:17:13;;;;;;;;;14.00;13.00;;;;;27.33;14.45;98813.09;6192011;27;96308;-63
2023/03/18 13:20:22;;;;;;;;;11.60;10.60;;;;;27.28;13.66;98804.97;6255691;27;98695;-62
2023/03/18 13:23:48;;;;;;;;;13.20;12.20;;;;;26.64;13.53;98811.34;6194266;27;97697;-63
2023/03/18 13:27:15;;;;;;;;;11.00;11.00;;;;;26.52;14.24;98810.41;6254954;27;97002;-62
2023/03/18 13:30:28;;;;;;;;;13.00;11.00;;;;;26.59;13.63;98811.53;6211311;27;96508;-64
2023/03/18 13:33:46;;;;;;;;;14.20;12.20;;;;;26.78;14.07;98796.53;6307546;27;96557;-64
2023/03/18 13:37:09;;;;;;;;;10.00;10.00;;;;;26.81;14.49;98801.41;6252135;27;97256;-63
2023/03/18 13:40:38;;;;;;;;;11.20;10.40;;;;;26.59;14.18;98791.34;6257755;27;97319;-63
2023/03/18 13:43:50;;;;;;;;;10.00;9.00;;;;;25.99;13.55;98799.72;6275185;27;97358;-65
2023/03/18 13:46:58;;;;;;;;;12.20;10.00;;;;;25.65;14.20;98792.22;6253016;27;96589;-65
2023/03/18 13:50:05;;;;;;;;;10.00;9.00;;;;;25.15;14.38;98791.72;6251360;27;97326;-66
2023/03/18 13:53:22;;;;;;;;;11.00;9.40;;;;;24.97;14.98;98799.13;6274976;27;97274;-64
2023/03/18 13:56:28;;;;;;;;;9.00;9.00;;;;;24.92;14.60;98788.25;6220087;27;96598;-63
2023/03/18 13:59:49;;;;;;;;;11.00;9.40;;;;;24.74;14.67;98786.47;6262396;27;97660;-63
2023/03/18 14:03:18;;;;;;;;;9.00;9.00;;;;;24.50;14.88;98784.09;6250603;27;96911;-63
2023/03/18 14:06:25;;;;;;;;;12.00;11.00;;;;;23.69;15.43;98788.78;6285384;27;98411;-63
2023/03/18 14:09:46;;;;;;;;;9.00;8.00;;;;;24.00;15.95;98783.38;6231065;27;96528;-63
2023/03/18 14:12:49;;;;;;;;;11.00;10.00;;;;;24.28;15.21;98778.59;6256327;27;96713;-63
2023/03/18 14:15:56;;;;;;;;;12.00;12.00;;;;;24.42;15.00;98771.06;6265930;27;97416;-64
2023/03/18 14:19:02;;;;;;;;;11.20;11.00;;;;;24.37;15.31;98768.44;6187893;27;96768;-63
2023/03/18 14:22:08;;;;;;;;;11.20;10.00;;;;;24.05;15.02;98769.47;6285751;27;96436;-63
2023/03/18 14:25:34;;;;;;;;;12.80;11.20;;;;;23.39;15.35;98772.91;6246301;27;98480;-63
2023/03/18 14:28:44;;;;;;;;;12.60;11.60;;;;;23.16;15.35;98769.28;6246345;27;97088;-63
2023/03/18 14:31:57;;;;;;;;;10.00;10.00;;;;;23.18;15.75;98767.03;6236682;27;96471;-63